Jask, Iran
Current Conditions -  °F | °C
As of 10:00 PM on Tuesday 21 Oct 2014 (Local Time) from OIZJ Reporting Station
NA  
Wind Chill: 84°   Ceiling: NA
Heat Index: 94°   Visibility: NA
Dew Point: 77°   Wind: 9mph
Humidity: 79%   Direction: 160°SSE
Pressure: 29.91"   Gusts: 76mph
Location:  25.65°N, 57.78°E
Report Text: OIZJ 211900Z AUTO 16008G66KT //// // ////// 29/25 Q1013
Loading
Personal Weather Stations






























Interactive Weather Map New forecast layout! Learn more

10-Day Weather Forecast

Advertisements
Track Severe Weather on mobile